createdAt,value
2018-11-07T00:02:50.727Z,2.50
2018-11-07T00:05:54.749Z,3.60
2018-11-07T00:08:58.621Z,2.90
2018-11-07T00:12:02.514Z,3.17
2018-11-07T00:15:08.382Z,3.13
2018-11-07T00:18:12.253Z,2.23
2018-11-07T00:21:16.344Z,3.50
2018-11-07T00:24:20.567Z,2.50
2018-11-07T00:27:24.446Z,3.47
2018-11-07T00:30:28.327Z,2.97
2018-11-07T00:33:32.197Z,3.90
2018-11-07T00:36:36.076Z,2.73
2018-11-07T00:39:39.950Z,3.10
2018-11-07T00:42:43.841Z,2.07
2018-11-07T00:45:47.721Z,2.40
2018-11-07T00:48:51.597Z,2.90
2018-11-07T00:51:55.490Z,2.50
2018-11-07T00:54:59.376Z,2.90
2018-11-07T00:58:03.311Z,3.60
2018-11-07T01:01:07.690Z,2.77
2018-11-07T01:04:11.591Z,4.33
2018-11-07T01:07:15.482Z,3.90
2018-11-07T01:10:19.367Z,3.27
2018-11-07T01:13:23.439Z,2.83
2018-11-07T01:16:27.523Z,2.47
2018-11-07T01:19:31.591Z,3.03
2018-11-07T01:22:35.473Z,2.60
2018-11-07T01:25:39.370Z,3.33
2018-11-07T01:28:43.575Z,3.17
2018-11-07T01:31:47.817Z,2.23
2018-11-07T01:34:51.937Z,3.50
2018-11-07T01:37:56.153Z,3.80
2018-11-07T01:41:00.043Z,2.70
2018-11-07T01:44:04.114Z,2.97
2018-11-07T01:47:08.416Z,3.60
2018-11-07T01:50:13.239Z,2.40
2018-11-07T01:53:17.117Z,4.30
2018-11-07T01:56:21.015Z,2.77
2018-11-07T01:59:25.265Z,2.10
2018-11-07T02:02:29.488Z,2.50
2018-11-07T02:05:33.374Z,2.60
2018-11-07T02:08:37.259Z,2.13
2018-11-07T02:11:41.149Z,2.93
2018-11-07T02:14:45.049Z,2.67
2018-11-07T02:17:48.920Z,2.47
2018-11-07T02:20:52.804Z,3.80
2018-11-07T02:23:56.696Z,4.20
2018-11-07T02:27:00.573Z,3.03
2018-11-07T02:30:05.642Z,4.07
2018-11-07T02:33:09.871Z,2.50
2018-11-07T02:36:13.733Z,3.20
2018-11-07T02:39:17.827Z,3.10
2018-11-07T02:42:21.703Z,3.83
2018-11-07T02:45:25.801Z,2.77
2018-11-07T02:48:29.694Z,4.70
2018-11-07T02:51:33.778Z,3.27
2018-11-07T02:54:37.882Z,3.27
2018-11-07T02:57:41.753Z,3.40
2018-11-07T03:00:45.983Z,1.63
2018-11-07T03:03:50.085Z,2.90
2018-11-07T03:06:54.154Z,3.27
2018-11-07T03:09:58.103Z,3.47
2018-11-07T03:13:02.129Z,2.90
2018-11-07T03:16:06.220Z,3.80
2018-11-07T03:19:10.441Z,2.30
2018-11-07T03:22:14.661Z,3.40
2018-11-07T03:25:18.549Z,2.33
2018-11-07T03:28:22.432Z,2.20
2018-11-07T03:31:26.516Z,1.97
2018-11-07T03:34:30.382Z,1.80
2018-11-07T03:37:34.600Z,2.40
2018-11-07T03:40:38.823Z,4.23
2018-11-07T03:43:42.907Z,4.53
2018-11-07T03:46:46.982Z,2.70
2018-11-07T03:49:50.852Z,3.37
2018-11-07T03:52:54.777Z,3.40
2018-11-07T03:55:58.811Z,3.50
2018-11-07T03:59:02.703Z,3.40
2018-11-07T04:02:07.117Z,5.20
2018-11-07T04:05:12.144Z,2.73
2018-11-07T04:08:16.217Z,4.40
2018-11-07T04:11:20.106Z,4.23
2018-11-07T04:14:24.243Z,2.90
2018-11-07T04:17:28.112Z,3.30
2018-11-07T04:20:32.082Z,3.77
2018-11-07T04:23:36.197Z,1.60
2018-11-07T04:26:40.085Z,3.60
2018-11-07T04:29:44.173Z,4.47
2018-11-07T04:32:48.268Z,3.97
2018-11-07T04:35:52.140Z,3.23
2018-11-07T04:38:56.558Z,4.03
2018-11-07T04:42:00.611Z,4.47
2018-11-07T04:45:04.500Z,4.33
2018-11-07T04:48:08.398Z,4.13
2018-11-07T04:51:12.869Z,4.13
2018-11-07T04:54:16.749Z,4.00
2018-11-07T04:57:20.843Z,3.47
2018-11-07T05:00:25.030Z,4.13
2018-11-07T05:03:29.369Z,3.97
2018-11-07T05:06:33.245Z,2.90
2018-11-07T05:09:37.129Z,4.37
2018-11-07T05:12:41.341Z,4.67
2018-11-07T05:15:45.234Z,3.60
2018-11-07T05:18:49.108Z,2.80
2018-11-07T05:21:53.321Z,3.00
2018-11-07T05:24:57.210Z,4.17
2018-11-07T05:28:01.115Z,4.30
2018-11-07T05:31:05.191Z,3.40
2018-11-07T05:34:09.430Z,3.90
2018-11-07T05:37:13.309Z,3.30
2018-11-07T05:40:17.201Z,4.20
2018-11-07T05:43:21.289Z,3.53
2018-11-07T05:46:25.371Z,3.20
2018-11-07T05:49:29.245Z,1.93
2018-11-07T05:52:33.656Z,4.40
2018-11-07T05:55:37.549Z,2.87
2018-11-07T05:58:41.426Z,4.10
2018-11-07T06:01:45.858Z,3.70
2018-11-07T06:04:49.754Z,5.47
2018-11-07T06:07:53.635Z,4.20
2018-11-07T06:10:57.505Z,3.60
2018-11-07T06:14:01.384Z,2.50
2018-11-07T06:17:06.121Z,3.10
2018-11-07T06:20:11.263Z,3.27
2018-11-07T06:23:15.155Z,3.83
2018-11-07T06:26:19.264Z,3.20
2018-11-07T06:29:23.225Z,4.03
2018-11-07T06:32:27.107Z,2.90
2018-11-07T06:35:31.008Z,2.90
2018-11-07T06:38:34.908Z,3.20
2018-11-07T06:41:39.179Z,4.40
2018-11-07T06:44:43.269Z,2.70
2018-11-07T06:47:47.160Z,3.00
2018-11-07T06:50:51.062Z,3.43
2018-11-07T06:53:54.950Z,2.97
2018-11-07T06:56:58.841Z,3.70
2018-11-07T07:00:02.977Z,5.57
2018-11-07T07:03:06.873Z,3.80
2018-11-07T07:06:10.929Z,3.43
2018-11-07T07:09:14.824Z,3.17
2018-11-07T07:12:18.712Z,4.67
2018-11-07T07:15:22.605Z,3.77
2018-11-07T07:18:26.822Z,2.40
2018-11-07T07:21:30.705Z,2.80
2018-11-07T07:24:34.595Z,3.60
2018-11-07T07:27:38.516Z,3.80
2018-11-07T07:30:42.394Z,4.03
2018-11-07T07:33:46.552Z,3.17
2018-11-07T07:36:50.903Z,3.57
2018-11-07T07:39:54.774Z,3.40
2018-11-07T07:42:58.850Z,2.20
2018-11-07T07:46:03.745Z,4.10
2018-11-07T07:49:07.976Z,2.87
2018-11-07T07:52:12.049Z,3.60
2018-11-07T07:55:15.942Z,3.10
2018-11-07T07:58:19.820Z,2.50
2018-11-07T08:01:23.701Z,2.67
2018-11-07T08:04:27.585Z,2.20
2018-11-07T08:07:31.457Z,2.83
2018-11-07T08:10:35.359Z,3.13
2018-11-07T08:13:39.517Z,2.60
2018-11-07T08:16:43.893Z,2.40
2018-11-07T08:19:48.117Z,2.87
2018-11-07T08:22:52.000Z,2.97
2018-11-07T08:25:55.881Z,3.20
2018-11-07T08:29:00.216Z,2.60
2018-11-07T08:32:04.273Z,2.53
2018-11-07T08:35:09.439Z,2.23
2018-11-07T08:38:13.310Z,2.17
2018-11-07T08:41:17.195Z,3.33
2018-11-07T08:44:21.623Z,2.20
2018-11-07T08:47:25.505Z,1.83
2018-11-07T08:50:29.384Z,2.60
2018-11-07T08:53:33.265Z,2.20
2018-11-07T08:56:37.717Z,3.03
2018-11-07T08:59:41.933Z,2.03
2018-11-07T09:02:46.091Z,2.93
2018-11-07T09:05:49.966Z,1.70
2018-11-07T09:08:54.190Z,1.87
2018-11-07T09:11:58.126Z,2.63
2018-11-07T09:15:02.206Z,2.77
2018-11-07T09:18:06.321Z,1.40
2018-11-07T09:21:10.539Z,2.10
2018-11-07T09:24:15.003Z,2.63
2018-11-07T09:27:19.029Z,2.50
2018-11-07T09:30:23.758Z,2.23
2018-11-07T09:33:27.660Z,1.57
2018-11-07T09:36:31.729Z,1.83
2018-11-07T09:39:35.666Z,2.83
2018-11-07T09:42:40.651Z,2.60
2018-11-07T09:45:46.160Z,1.70
2018-11-07T09:48:50.217Z,1.97
2018-11-07T09:51:54.289Z,3.07
2018-11-07T09:54:58.177Z,2.17
2018-11-07T09:58:02.067Z,2.37
2018-11-07T10:01:06.205Z,1.30
2018-11-07T10:04:10.125Z,2.80
2018-11-07T10:07:14.002Z,2.10
2018-11-07T10:10:19.238Z,1.73
2018-11-07T10:13:23.430Z,2.47
2018-11-07T10:16:27.322Z,2.27
2018-11-07T10:19:31.216Z,1.70
2018-11-07T10:22:35.084Z,2.23
2018-11-07T10:25:38.996Z,1.60
2018-11-07T10:28:43.088Z,1.73
2018-11-07T10:31:46.980Z,2.20
2018-11-07T10:34:50.886Z,1.87
2018-11-07T10:37:54.848Z,1.93
2018-11-07T10:40:58.903Z,2.47
2018-11-07T10:44:02.954Z,1.63
2018-11-07T10:47:07.054Z,1.70
2018-11-07T10:50:12.021Z,2.17
2018-11-07T10:53:16.090Z,2.57
2018-11-07T10:56:20.177Z,1.80
2018-11-07T10:59:24.062Z,1.33
2018-11-07T11:02:33.331Z,3.43
2018-11-07T11:05:38.346Z,1.80
2018-11-07T11:08:42.238Z,1.90
2018-11-07T11:11:46.130Z,1.63
2018-11-07T11:14:50.042Z,1.57
2018-11-07T11:17:53.924Z,1.90
2018-11-07T11:20:58.625Z,2.30
2018-11-07T11:24:02.510Z,2.10
2018-11-07T11:27:06.801Z,2.03
2018-11-07T11:30:10.985Z,1.80
2018-11-07T11:33:14.869Z,1.80
2018-11-07T11:36:18.971Z,1.83
2018-11-07T11:39:22.861Z,1.70
2018-11-07T11:42:27.085Z,2.60
2018-11-07T11:45:31.153Z,2.07
2018-11-07T11:48:35.037Z,1.60
2018-11-07T11:51:38.930Z,1.27
2018-11-07T11:54:42.793Z,1.07
2018-11-07T11:57:47.213Z,1.33
2018-11-07T12:00:51.118Z,1.70
2018-11-07T12:03:56.686Z,2.10
2018-11-07T12:07:00.552Z,1.70
2018-11-07T12:10:05.116Z,2.10
2018-11-07T12:13:09.371Z,1.87
2018-11-07T12:16:13.425Z,1.60
2018-11-07T12:19:17.690Z,2.30
2018-11-07T12:22:21.584Z,2.03
2018-11-07T12:25:25.491Z,1.43
2018-11-07T12:28:29.382Z,1.47
2018-11-07T12:31:33.267Z,1.30
2018-11-07T12:34:37.358Z,1.80
2018-11-07T12:37:41.870Z,1.37
2018-11-07T12:40:45.969Z,1.83
2018-11-07T12:43:49.860Z,1.50
2018-11-07T12:46:53.745Z,1.40
2018-11-07T12:49:58.095Z,1.40
2018-11-07T12:53:02.098Z,1.13
2018-11-07T12:56:06.298Z,1.27
2018-11-07T12:59:10.182Z,1.10
2018-11-07T13:02:14.582Z,2.00
2018-11-07T13:05:19.530Z,1.30
2018-11-07T13:08:23.755Z,1.10
2018-11-07T13:11:27.733Z,0.57
2018-11-07T13:14:31.770Z,1.43
2018-11-07T13:17:36.002Z,1.40
2018-11-07T13:20:39.877Z,1.10
2018-11-07T13:23:43.769Z,1.13
2018-11-07T13:26:47.765Z,1.70
2018-11-07T13:29:51.763Z,1.20
2018-11-07T13:32:55.782Z,1.30
2018-11-07T13:35:59.794Z,0.80
2018-11-07T13:39:06.805Z,1.87
2018-11-07T13:42:10.650Z,1.00
2018-11-07T13:45:16.107Z,1.13
2018-11-07T13:48:20.213Z,1.20
2018-11-07T13:51:24.394Z,0.90
2018-11-07T13:54:28.418Z,1.53
2018-11-07T13:57:32.913Z,1.03
2018-11-07T14:00:36.926Z,1.27
2018-11-07T14:03:40.928Z,1.97
2018-11-07T14:06:45.146Z,0.80
2018-11-07T14:09:49.032Z,1.90
2018-11-07T14:12:53.268Z,1.70
2018-11-07T14:15:57.701Z,1.60
2018-11-07T14:19:02.342Z,0.87
2018-11-07T14:22:06.214Z,1.23
2018-11-07T14:25:10.786Z,1.20
2018-11-07T14:28:15.280Z,0.80
2018-11-07T14:31:19.213Z,1.80
2018-11-07T14:34:23.737Z,0.67
2018-11-07T14:37:27.973Z,0.70
2018-11-07T14:40:31.854Z,1.53
2018-11-07T14:43:35.732Z,1.33
2018-11-07T14:46:39.684Z,1.57
2018-11-07T14:49:43.716Z,1.10
2018-11-07T14:52:47.598Z,1.00
2018-11-07T14:55:51.477Z,0.83
2018-11-07T14:58:55.341Z,0.80
2018-11-07T15:01:59.227Z,1.80
2018-11-07T15:05:03.457Z,1.37
2018-11-07T15:08:07.614Z,1.40
2018-11-07T15:11:11.701Z,0.90
2018-11-07T15:14:15.714Z,0.70
2018-11-07T15:17:19.832Z,0.97
2018-11-07T15:20:23.897Z,0.83
2018-11-07T15:23:27.777Z,0.90
2018-11-07T15:26:31.882Z,0.87
2018-11-07T15:29:35.786Z,1.13
2018-11-07T15:32:40.741Z,1.10
2018-11-07T15:35:44.953Z,1.10
2018-11-07T15:38:48.833Z,0.90
2018-11-07T15:41:52.713Z,1.03
2018-11-07T15:44:56.616Z,1.47
2018-11-07T15:48:00.665Z,1.50
2018-11-07T15:51:10.709Z,1.63
2018-11-07T15:54:14.594Z,0.87
2018-11-07T15:57:18.666Z,1.23
2018-11-07T16:00:22.737Z,1.93
2018-11-07T16:03:32.289Z,1.57
2018-11-07T16:06:36.152Z,1.80
2018-11-07T16:09:40.033Z,1.30
2018-11-07T16:12:44.321Z,1.00
2018-11-07T16:15:48.210Z,1.33
2018-11-07T16:18:52.312Z,1.50
2018-11-07T16:21:56.211Z,1.77
2018-11-07T16:25:00.094Z,2.20
2018-11-07T16:28:04.313Z,2.80
2018-11-07T16:31:08.403Z,1.73
2018-11-07T16:34:12.486Z,2.40
2018-11-07T16:37:16.718Z,2.10
2018-11-07T16:40:20.601Z,2.47
2018-11-07T16:43:24.808Z,1.90
2018-11-07T16:46:28.734Z,2.50
2018-11-07T16:49:32.766Z,2.30
2018-11-07T16:52:36.749Z,1.93
2018-11-07T16:55:41.078Z,2.00
2018-11-07T16:58:45.138Z,1.70
2018-11-07T17:01:49.015Z,2.63
2018-11-07T17:04:52.898Z,2.10
2018-11-07T17:07:56.793Z,2.60
2018-11-07T17:11:00.665Z,1.67
2018-11-07T17:14:04.777Z,1.87
2018-11-07T17:17:08.661Z,1.67
2018-11-07T17:20:13.849Z,2.47
2018-11-07T17:23:18.527Z,2.30
2018-11-07T17:26:21.802Z,2.50
2018-11-07T17:29:25.669Z,2.20
2018-11-07T17:32:29.564Z,1.90
2018-11-07T17:35:33.476Z,2.43
2018-11-07T17:38:37.431Z,1.73
2018-11-07T17:41:41.790Z,2.00
2018-11-07T17:46:15.376Z,1.73
2018-11-07T17:49:19.263Z,1.97
2018-11-07T17:52:23.159Z,2.17
2018-11-07T17:55:27.034Z,2.53
2018-11-07T17:58:30.913Z,2.07
2018-11-07T18:01:34.782Z,2.07
2018-11-07T18:04:38.680Z,2.07
2018-11-07T18:07:42.943Z,2.03
2018-11-07T18:10:46.965Z,2.23
2018-11-07T18:13:51.194Z,2.27
2018-11-07T18:16:55.063Z,1.50
2018-11-07T18:19:59.486Z,1.60
2018-11-07T18:23:03.702Z,1.70
2018-11-07T18:26:07.582Z,2.07
2018-11-07T18:29:11.732Z,2.67
2018-11-07T18:32:16.204Z,2.10
2018-11-07T18:35:20.746Z,2.17
2018-11-07T18:38:24.704Z,2.10
2018-11-07T18:41:28.597Z,2.63
2018-11-07T18:44:32.830Z,2.10
2018-11-07T18:47:37.108Z,2.50
2018-11-07T18:50:41.021Z,1.50
2018-11-07T18:53:45.136Z,1.60
2018-11-07T18:56:48.983Z,2.20
2018-11-07T18:59:53.198Z,1.93
2018-11-07T19:02:57.287Z,2.17
2018-11-07T19:06:01.507Z,1.77
2018-11-07T19:09:07.514Z,2.20
2018-11-07T19:12:11.421Z,1.70
2018-11-07T19:15:15.991Z,2.20
2018-11-07T19:18:19.865Z,2.10
2018-11-07T19:21:24.083Z,1.80
2018-11-07T19:24:27.956Z,1.80
2018-11-07T19:27:31.861Z,2.30
2018-11-07T19:30:35.745Z,2.43
2018-11-07T19:33:39.795Z,1.73
2018-11-07T19:36:43.683Z,1.53
2018-11-07T19:39:47.764Z,2.20
2018-11-07T19:42:51.662Z,2.40
2018-11-07T19:45:55.774Z,2.13
2018-11-07T19:48:59.866Z,2.93
2018-11-07T19:52:03.754Z,1.47
2018-11-07T19:55:10.063Z,2.30
2018-11-07T19:58:14.094Z,1.43
2018-11-07T20:01:18.322Z,2.37
2018-11-07T20:04:22.425Z,2.20
2018-11-07T20:07:26.550Z,2.17
2018-11-07T20:10:30.484Z,2.40
2018-11-07T20:13:34.474Z,3.17
2018-11-07T20:16:38.572Z,1.80
2018-11-07T20:19:42.638Z,2.03
2018-11-07T20:22:46.568Z,2.47
2018-11-07T20:25:50.605Z,1.80
2018-11-07T20:28:54.852Z,2.00
2018-11-07T20:31:58.901Z,2.03
2018-11-07T20:35:02.777Z,1.70
2018-11-07T20:38:06.991Z,2.00
2018-11-07T20:41:11.066Z,1.57
2018-11-07T20:44:15.153Z,2.03
2018-11-07T20:47:19.218Z,1.90
2018-11-07T20:50:23.617Z,2.83
2018-11-07T20:53:27.938Z,2.23
2018-11-07T20:56:32.060Z,1.80
2018-11-07T20:59:35.932Z,2.43
2018-11-07T21:02:40.186Z,1.40
2018-11-07T21:05:44.064Z,1.27
2018-11-07T21:08:48.150Z,2.00
2018-11-07T21:11:52.039Z,2.20
2018-11-07T21:14:55.929Z,2.43
2018-11-07T21:17:59.801Z,1.30
2018-11-07T21:21:04.201Z,2.67
2018-11-07T21:24:08.404Z,1.40
2018-11-07T21:27:12.348Z,2.40
2018-11-07T21:30:16.718Z,1.50
2018-11-07T21:33:20.593Z,1.60
2018-11-07T21:36:24.483Z,1.67
2018-11-07T21:39:28.349Z,1.50
2018-11-07T21:42:32.239Z,1.70
2018-11-07T21:45:36.129Z,1.60
2018-11-07T21:48:40.229Z,1.63
2018-11-07T21:51:44.433Z,2.40
2018-11-07T21:54:48.385Z,1.93
2018-11-07T21:57:52.373Z,0.83
2018-11-07T22:00:56.265Z,2.30
2018-11-07T22:04:00.138Z,1.53
2018-11-07T22:07:04.019Z,2.30
2018-11-07T22:10:08.926Z,2.00
2018-11-07T22:13:12.841Z,1.40
2018-11-07T22:16:16.861Z,1.80
2018-11-07T22:19:20.949Z,1.87
2018-11-07T22:22:24.901Z,1.50
2018-11-07T22:25:28.760Z,1.23
2018-11-07T22:28:32.973Z,1.57
2018-11-07T22:31:37.262Z,1.63
2018-11-07T22:34:41.266Z,1.30
2018-11-07T22:37:45.777Z,1.50
2018-11-07T22:40:49.639Z,1.57
2018-11-07T22:43:53.526Z,1.50
2018-11-07T22:46:57.406Z,1.60
2018-11-07T22:50:01.277Z,0.70
2018-11-07T22:53:05.153Z,1.30
2018-11-07T22:56:09.044Z,0.90
2018-11-07T22:59:12.919Z,1.13
2018-11-07T23:02:16.841Z,1.07
2018-11-07T23:05:20.922Z,1.30
2018-11-07T23:08:24.811Z,1.40
2018-11-07T23:11:28.683Z,1.37
2018-11-07T23:14:32.598Z,1.77
2018-11-07T23:17:36.473Z,1.30
2018-11-07T23:20:40.363Z,1.43
2018-11-07T23:23:44.246Z,1.27
2018-11-07T23:26:48.117Z,0.80
2018-11-07T23:29:52.003Z,0.80
2018-11-07T23:32:55.881Z,0.70
2018-11-07T23:35:59.745Z,0.60
2018-11-07T23:39:05.350Z,1.20
2018-11-07T23:42:09.234Z,0.90
2018-11-07T23:45:13.317Z,0.60
2018-11-07T23:48:17.406Z,0.70
2018-11-07T23:51:21.279Z,0.80
2018-11-07T23:54:25.140Z,0.87
2018-11-07T23:57:29.086Z,0.67
